createdAt,value
2023-07-15T00:04:45.869Z,79.40
2023-07-15T00:09:45.837Z,79.91
2023-07-15T00:14:45.836Z,80.86
2023-07-15T00:19:45.779Z,80.76
2023-07-15T00:24:45.726Z,80.59
2023-07-15T00:29:45.679Z,80.79
2023-07-15T00:34:45.628Z,80.79
2023-07-15T00:39:45.595Z,80.90
2023-07-15T00:44:45.532Z,81.30
2023-07-15T00:49:45.494Z,81.60
2023-07-15T00:54:45.436Z,80.90
2023-07-15T00:59:45.415Z,81.34
2023-07-15T01:04:45.384Z,82.15
2023-07-15T01:09:45.342Z,82.45
2023-07-15T01:14:45.308Z,82.96
2023-07-15T01:19:45.296Z,82.66
2023-07-15T01:24:45.237Z,81.74
2023-07-15T01:29:45.194Z,81.10
2023-07-15T01:34:45.134Z,80.08
2023-07-15T01:39:45.126Z,79.58
2023-07-15T01:44:45.127Z,80.32
2023-07-15T01:49:45.076Z,81.85
2023-07-15T01:54:45.020Z,82.80
2023-07-15T01:59:45.055Z,83.24
2023-07-15T02:04:44.983Z,83.45
2023-07-15T02:09:44.934Z,83.24
2023-07-15T02:14:44.891Z,83.34
2023-07-15T02:19:44.874Z,83.85
2023-07-15T02:24:44.880Z,83.95
2023-07-15T02:29:44.833Z,84.30
2023-07-15T02:34:44.848Z,85.11
2023-07-15T02:39:44.937Z,85.66
2023-07-15T02:44:44.761Z,85.96
2023-07-15T02:49:44.755Z,85.35
2023-07-15T02:54:44.741Z,85.35
2023-07-15T02:59:44.737Z,84.91
2023-07-15T03:04:44.726Z,84.50
2023-07-15T03:09:44.677Z,85.25
2023-07-15T03:14:44.617Z,85.21
2023-07-15T03:19:44.608Z,84.87
2023-07-15T03:24:44.568Z,84.36
2023-07-15T03:29:44.519Z,83.85
2023-07-15T03:34:44.473Z,83.85
2023-07-15T03:39:44.432Z,84.16
2023-07-15T03:44:44.394Z,83.75
2023-07-15T03:49:44.347Z,84.01
2023-07-15T03:54:44.294Z,84.42
2023-07-15T03:59:44.251Z,84.63
2023-07-15T04:04:44.215Z,84.63
2023-07-15T04:09:44.189Z,84.28
2023-07-15T04:14:44.116Z,83.73
2023-07-15T04:19:44.112Z,83.09
2023-07-15T04:24:44.130Z,83.09
2023-07-15T04:29:44.035Z,83.18
2023-07-15T04:34:43.994Z,82.98
2023-07-15T04:39:43.966Z,82.89
2023-07-15T04:44:43.935Z,82.95
2023-07-15T04:49:43.900Z,83.04
2023-07-15T04:54:43.861Z,82.81
2023-07-15T04:59:43.867Z,82.87
2023-07-15T05:04:43.811Z,82.73
2023-07-15T05:09:43.808Z,82.59
2023-07-15T05:14:43.864Z,81.54
2023-07-15T05:19:43.764Z,80.19
2023-07-15T05:24:43.757Z,78.53
2023-07-15T05:29:43.700Z,76.88
2023-07-15T05:34:43.669Z,76.40
2023-07-15T05:39:43.623Z,74.76
2023-07-15T05:44:43.586Z,74.89
2023-07-15T05:49:43.563Z,71.40
2023-07-15T05:54:43.515Z,68.35
2023-07-15T05:59:43.490Z,66.18
2023-07-15T06:04:43.467Z,66.05
2023-07-15T06:09:43.426Z,62.45
2023-07-15T06:14:43.394Z,58.01
2023-07-15T06:19:43.386Z,60.35
2023-07-15T06:24:43.343Z,56.10
2023-07-15T06:29:43.304Z,55.95
2023-07-15T06:34:43.283Z,52.94
2023-07-15T06:39:43.285Z,53.41
2023-07-15T06:44:44.543Z,53.14
2023-07-15T06:49:43.199Z,54.90
2023-07-15T06:54:43.148Z,53.41
2023-07-15T06:59:43.122Z,52.86
2023-07-15T07:04:43.080Z,51.05
2023-07-15T07:09:43.053Z,49.49
2023-07-15T07:14:43.009Z,48.85
2023-07-15T07:19:42.975Z,45.30
2023-07-15T07:24:42.946Z,37.69
2023-07-15T07:29:42.908Z,35.56
2023-07-15T07:34:42.870Z,35.74
2023-07-15T07:39:42.850Z,33.96
2023-07-15T07:44:42.800Z,33.43
2023-07-15T07:49:42.754Z,32.96
2023-07-15T07:54:42.724Z,33.59
2023-07-15T07:59:42.681Z,34.05
2023-07-15T08:04:42.735Z,31.73
2023-07-15T08:09:42.649Z,34.06
2023-07-15T08:14:42.629Z,31.00
2023-07-15T08:19:42.567Z,30.19
2023-07-15T08:24:42.561Z,30.09
2023-07-15T08:29:42.578Z,30.48
2023-07-15T08:34:42.553Z,30.07
2023-07-15T08:39:42.489Z,31.19
2023-07-15T08:44:42.491Z,30.01
2023-07-15T08:49:42.486Z,33.07
2023-07-15T08:54:42.438Z,31.61
2023-07-15T08:59:42.439Z,29.00
2023-07-15T09:04:42.496Z,31.11
2023-07-15T09:09:42.397Z,28.51
2023-07-15T09:14:52.215Z,29.52
2023-07-15T09:19:42.348Z,29.47
2023-07-15T09:24:42.311Z,28.63
2023-07-15T09:29:42.274Z,28.04
2023-07-15T09:34:42.516Z,28.29
2023-07-15T09:39:42.271Z,26.62
2023-07-15T09:44:43.798Z,27.46
2023-07-15T09:49:42.158Z,25.61
2023-07-15T09:54:42.154Z,25.70
2023-07-15T09:59:42.140Z,26.54
2023-07-15T10:04:42.181Z,26.57
2023-07-15T10:09:42.108Z,23.14
2023-07-15T10:14:42.079Z,24.79
2023-07-15T10:19:42.087Z,24.24
2023-07-15T10:24:42.048Z,24.87
2023-07-15T10:29:42.035Z,23.29
2023-07-15T10:34:42.006Z,24.63
2023-07-15T10:39:41.981Z,22.36
2023-07-15T10:44:41.990Z,23.13
2023-07-15T10:49:41.940Z,23.93
2023-07-15T10:54:41.902Z,22.24
2023-07-15T10:59:41.894Z,23.50
2023-07-15T11:04:41.893Z,21.37
2023-07-15T11:09:41.837Z,22.56
2023-07-15T11:14:41.918Z,22.16
2023-07-15T11:19:41.823Z,22.96
2023-07-15T11:24:42.376Z,21.40
2023-07-15T11:29:41.750Z,22.60
2023-07-15T11:34:41.699Z,23.08
2023-07-15T11:39:41.731Z,22.38
2023-07-15T11:44:41.664Z,23.08
2023-07-15T11:49:41.658Z,19.30
2023-07-15T11:54:41.637Z,20.95
2023-07-15T11:59:41.674Z,19.67
2023-07-15T12:04:41.627Z,20.94
2023-07-15T12:09:41.932Z,19.43
2023-07-15T12:14:41.510Z,20.74
2023-07-15T12:19:41.531Z,24.38
2023-07-15T12:24:43.910Z,20.76
2023-07-15T12:29:41.451Z,22.94
2023-07-15T12:34:41.451Z,21.10
2023-07-15T12:39:41.447Z,22.59
2023-07-15T12:44:41.649Z,24.43
2023-07-15T12:49:41.416Z,24.66
2023-07-15T12:54:41.409Z,25.84
2023-07-15T12:59:41.414Z,27.21
2023-07-15T13:04:41.862Z,28.99
2023-07-15T13:09:43.999Z,28.34
2023-07-15T13:14:41.415Z,29.46
2023-07-15T13:19:41.310Z,30.24
2023-07-15T13:24:41.857Z,29.46
2023-07-15T13:29:41.221Z,30.24
2023-07-15T13:34:41.197Z,31.04
2023-07-15T13:39:41.165Z,35.33
2023-07-15T13:44:41.173Z,34.28
2023-07-15T13:49:41.119Z,32.55
2023-07-15T13:54:41.190Z,32.92
2023-07-15T13:59:41.046Z,31.67
2023-07-15T14:04:41.044Z,34.53
2023-07-15T14:09:41.005Z,32.50
2023-07-15T14:14:40.951Z,31.46
2023-07-15T14:19:40.967Z,32.24
2023-07-15T14:24:41.043Z,33.04
2023-07-15T14:29:40.919Z,31.69
2023-07-15T14:34:40.928Z,33.06
2023-07-15T14:39:40.916Z,33.82
2023-07-15T14:44:40.867Z,33.23
2023-07-15T14:49:40.853Z,34.88
2023-07-15T14:54:40.803Z,35.41
2023-07-15T14:59:40.777Z,34.94
2023-07-15T15:04:40.774Z,35.94
2023-07-15T15:09:40.772Z,36.15
2023-07-15T15:14:40.750Z,38.98
2023-07-15T15:19:40.746Z,36.36
2023-07-15T15:24:40.735Z,37.95
2023-07-15T15:29:40.731Z,38.65
2023-07-15T15:34:40.780Z,38.10
2023-07-15T15:39:40.694Z,39.49
2023-07-15T15:44:40.671Z,38.41
2023-07-15T15:49:40.645Z,39.59
2023-07-15T15:54:41.774Z,39.98
2023-07-15T15:59:40.600Z,39.69
2023-07-15T16:04:40.546Z,43.51
2023-07-15T16:09:40.534Z,41.74
2023-07-15T16:14:40.527Z,41.25
2023-07-15T16:19:40.528Z,42.76
2023-07-15T16:24:42.864Z,42.98
2023-07-15T16:29:40.459Z,43.57
2023-07-15T16:34:40.417Z,43.57
2023-07-15T16:39:40.375Z,44.04
2023-07-15T16:44:40.369Z,43.27
2023-07-15T16:49:40.337Z,43.49
2023-07-15T16:54:40.312Z,44.37
2023-07-15T16:59:40.300Z,44.89
2023-07-15T17:04:40.325Z,45.89
2023-07-15T17:09:40.253Z,47.29
2023-07-15T17:14:40.253Z,47.41
2023-07-15T17:19:40.248Z,48.69
2023-07-15T17:24:40.261Z,48.22
2023-07-15T17:29:40.250Z,50.12
2023-07-15T17:34:40.187Z,49.45
2023-07-15T17:39:40.185Z,49.35
2023-07-15T17:44:40.139Z,50.66
2023-07-15T17:49:40.133Z,51.35
2023-07-15T17:54:40.123Z,50.26
2023-07-15T17:59:40.105Z,50.56
2023-07-15T18:04:40.036Z,51.25
2023-07-15T18:09:40.041Z,52.95
2023-07-15T18:14:40.019Z,51.50
2023-07-15T18:19:40.021Z,51.50
2023-07-15T18:24:40.007Z,51.89
2023-07-15T18:29:40.067Z,52.28
2023-07-15T18:34:39.982Z,53.99
2023-07-15T18:39:39.976Z,55.40
2023-07-15T18:44:39.933Z,56.31
2023-07-15T18:49:39.887Z,56.63
2023-07-15T18:54:39.867Z,56.67
2023-07-15T18:59:39.868Z,57.46
2023-07-15T19:04:39.821Z,58.07
2023-07-15T19:09:39.809Z,58.57
2023-07-15T19:14:39.798Z,59.09
2023-07-15T19:19:39.781Z,59.49
2023-07-15T19:24:39.775Z,59.92
2023-07-15T19:29:39.716Z,59.52
2023-07-15T19:34:39.725Z,58.30
2023-07-15T19:39:39.672Z,57.78
2023-07-15T19:44:39.670Z,59.79
2023-07-15T19:49:39.661Z,61.21
2023-07-15T19:49:44.865Z,61.40
2023-07-15T19:49:50.065Z,61.30
2023-07-15T19:49:55.282Z,60.91
2023-07-15T19:50:00.491Z,60.71
2023-07-15T19:50:05.694Z,60.61
2023-07-15T19:50:41.623Z,60.81
2023-07-15T19:50:46.840Z,60.71
2023-07-15T19:50:52.044Z,60.71
2023-07-15T19:50:57.256Z,60.81
2023-07-15T19:51:02.457Z,61.00
2023-07-15T19:51:07.669Z,61.10
2023-07-15T19:51:45.813Z,61.33
2023-07-15T19:56:43.590Z,59.55
2023-07-15T20:01:43.714Z,61.13
2023-07-15T20:06:45.510Z,65.39
2023-07-15T20:11:43.508Z,68.96
2023-07-15T20:16:43.553Z,74.87
2023-07-15T20:21:43.471Z,80.86
2023-07-15T20:26:43.474Z,85.27
2023-07-15T20:31:43.525Z,86.61
2023-07-15T20:36:43.434Z,87.21
2023-07-15T20:41:43.442Z,87.41
2023-07-15T20:46:43.375Z,89.01
2023-07-15T20:51:43.294Z,88.10
2023-07-15T20:56:43.311Z,88.85
2023-07-15T21:01:43.265Z,88.65
2023-07-15T21:06:43.187Z,89.75
2023-07-15T21:11:43.187Z,89.15
2023-07-15T21:16:43.243Z,90.25
2023-07-15T21:21:43.187Z,90.59
2023-07-15T21:26:43.123Z,89.69
2023-07-15T21:31:43.127Z,89.99
2023-07-15T21:36:43.035Z,90.94
2023-07-15T21:41:42.989Z,92.54
2023-07-15T21:46:43.078Z,92.03
2023-07-15T21:51:42.931Z,93.48
2023-07-15T21:56:42.893Z,94.08
2023-07-15T22:01:42.860Z,94.32
2023-07-15T22:06:42.817Z,94.02
2023-07-15T22:11:42.847Z,94.93
2023-07-15T22:16:42.765Z,95.37
2023-07-15T22:21:42.687Z,95.47
2023-07-15T22:26:42.662Z,95.77
2023-07-15T22:31:42.665Z,95.77
2023-07-15T22:36:42.621Z,95.57
2023-07-15T22:41:42.578Z,94.57
2023-07-15T22:46:42.582Z,95.07
2023-07-15T22:51:42.520Z,95.17
2023-07-15T22:56:42.481Z,94.92
2023-07-15T23:01:42.584Z,93.91
2023-07-15T23:06:42.438Z,93.31
2023-07-15T23:11:42.397Z,92.81
2023-07-15T23:16:42.382Z,92.71
2023-07-15T23:21:42.350Z,92.81
2023-07-15T23:26:42.289Z,92.41
2023-07-15T23:31:42.253Z,91.81
2023-07-15T23:36:42.247Z,91.20
2023-07-15T23:41:42.210Z,90.91
2023-07-15T23:46:42.214Z,91.31
2023-07-15T23:51:42.163Z,91.35
2023-07-15T23:56:42.137Z,91.45
